createdAt,value
2019-05-14T00:01:42.213Z,99.90
2019-05-14T00:04:11.781Z,99.90
2019-05-14T00:06:41.794Z,99.90
2019-05-14T00:09:12.121Z,99.90
2019-05-14T00:11:42.205Z,99.90
2019-05-14T00:14:11.844Z,99.90
2019-05-14T00:16:42.501Z,99.90
2019-05-14T00:19:12.174Z,99.90
2019-05-14T00:21:42.395Z,99.90
2019-05-14T00:24:11.950Z,99.90
2019-05-14T00:26:42.708Z,99.90
2019-05-14T00:29:12.174Z,99.90
2019-05-14T00:31:42.451Z,99.90
2019-05-14T00:34:12.025Z,99.90
2019-05-14T00:36:41.819Z,99.90
2019-05-14T00:39:11.446Z,99.90
2019-05-14T00:41:42.056Z,99.90
2019-05-14T00:44:13.517Z,99.90
2019-05-14T00:46:42.627Z,99.90
2019-05-14T00:49:12.011Z,99.90
2019-05-14T00:51:41.439Z,99.90
2019-05-14T00:54:11.173Z,99.90
2019-05-14T00:56:41.627Z,99.90
2019-05-14T00:59:11.461Z,99.90
2019-05-14T01:01:42.451Z,99.90
2019-05-14T01:04:12.145Z,99.90
2019-05-14T01:06:42.046Z,99.90
2019-05-14T01:09:12.192Z,99.90
2019-05-14T01:11:42.131Z,99.90
2019-05-14T01:14:12.219Z,99.90
2019-05-14T01:16:42.485Z,99.90
2019-05-14T01:19:12.361Z,99.90
2019-05-14T01:21:41.915Z,99.90
2019-05-14T01:24:12.625Z,99.90
2019-05-14T01:26:42.153Z,99.90
2019-05-14T01:29:11.917Z,99.90
2019-05-14T01:31:41.855Z,99.90
2019-05-14T01:34:11.384Z,99.90
2019-05-14T01:36:41.361Z,99.90
2019-05-14T01:39:12.059Z,99.90
2019-05-14T01:41:42.377Z,99.90
2019-05-14T01:44:12.085Z,99.90
2019-05-14T01:46:42.068Z,99.90
2019-05-14T01:49:12.077Z,99.90
2019-05-14T01:51:42.418Z,99.90
2019-05-14T01:54:12.082Z,99.90
2019-05-14T01:56:42.377Z,99.90
2019-05-14T01:59:12.215Z,99.90
2019-05-14T02:01:41.815Z,99.90
2019-05-14T02:04:11.808Z,99.90
2019-05-14T02:06:41.572Z,99.90
2019-05-14T02:09:11.237Z,99.90
2019-05-14T02:11:41.587Z,99.90
2019-05-14T02:14:11.781Z,99.90
2019-05-14T02:16:42.278Z,99.90
2019-05-14T02:19:11.962Z,99.90
2019-05-14T02:21:42.492Z,99.90
2019-05-14T02:24:11.996Z,99.90
2019-05-14T02:26:42.460Z,99.90
2019-05-14T02:29:12.508Z,99.90
2019-05-14T02:31:42.003Z,99.90
2019-05-14T02:34:11.358Z,99.90
2019-05-14T02:36:40.720Z,99.90
2019-05-14T02:39:10.478Z,99.90
2019-05-14T02:41:39.952Z,99.90
2019-05-14T02:44:10.135Z,99.90
2019-05-14T02:46:40.480Z,99.90
2019-05-14T02:49:10.618Z,99.90
2019-05-14T02:51:40.054Z,99.90
2019-05-14T02:54:10.148Z,99.90
2019-05-14T02:56:40.382Z,99.90
2019-05-14T02:59:10.179Z,99.90
2019-05-14T03:01:40.786Z,99.90
2019-05-14T03:04:10.605Z,99.90
2019-05-14T03:06:39.957Z,99.90
2019-05-14T03:09:09.921Z,99.90
2019-05-14T03:11:40.392Z,99.90
2019-05-14T03:14:10.153Z,99.90
2019-05-14T03:16:42.141Z,99.90
2019-05-14T03:19:11.689Z,99.90
2019-05-14T03:21:41.031Z,99.90
2019-05-14T03:24:10.386Z,99.90
2019-05-14T03:26:40.044Z,99.90
2019-05-14T03:29:10.086Z,99.90
2019-05-14T03:31:42.759Z,99.90
2019-05-14T03:34:13.564Z,99.90
2019-05-14T03:36:43.591Z,99.90
2019-05-14T03:39:12.821Z,99.90
2019-05-14T03:41:42.204Z,99.90
2019-05-14T03:44:11.596Z,99.90
2019-05-14T03:46:48.880Z,99.90
2019-05-14T03:49:12.009Z,99.90
2019-05-14T03:51:41.295Z,99.90
2019-05-14T03:54:12.620Z,99.90
2019-05-14T03:56:41.793Z,99.90
2019-05-14T03:59:11.239Z,99.90
2019-05-14T04:01:40.758Z,99.90
2019-05-14T04:04:10.561Z,99.90
2019-05-14T04:06:41.845Z,99.90
2019-05-14T04:09:14.141Z,99.90
2019-05-14T04:11:45.695Z,99.90
2019-05-14T04:14:20.147Z,99.90
2019-05-14T04:17:08.118Z,99.90
2019-05-14T04:19:24.670Z,99.90
2019-05-14T04:21:55.747Z,99.90
2019-05-14T04:24:29.475Z,99.90
2019-05-14T04:27:07.501Z,99.90
2019-05-14T04:29:32.346Z,99.90
2019-05-14T04:32:03.942Z,99.90
2019-05-14T04:34:34.203Z,99.90
2019-05-14T04:37:03.746Z,99.90
2019-05-14T04:39:33.253Z,99.90
2019-05-14T04:42:02.615Z,99.90
2019-05-14T04:44:31.942Z,99.90
2019-05-14T04:47:21.694Z,99.90
2019-05-14T04:49:33.684Z,99.90
2019-05-14T04:52:03.068Z,99.90
2019-05-14T04:54:32.457Z,99.90
2019-05-14T04:57:01.978Z,99.90
2019-05-14T04:59:31.394Z,99.90
2019-05-14T05:02:00.763Z,99.90
2019-05-14T05:04:30.401Z,99.90
2019-05-14T05:06:59.887Z,99.90
2019-05-14T05:09:29.608Z,99.90
2019-05-14T05:11:59.976Z,99.90
2019-05-14T05:14:29.837Z,99.90
2019-05-14T05:16:59.652Z,99.90
2019-05-14T05:19:29.436Z,99.90
2019-05-14T05:21:59.857Z,99.90
2019-05-14T05:24:29.214Z,99.90
2019-05-14T05:26:58.793Z,99.90
2019-05-14T05:29:28.667Z,99.90
2019-05-14T05:31:59.324Z,99.90
2019-05-14T05:34:28.848Z,99.90
2019-05-14T05:36:59.174Z,99.90
2019-05-14T05:39:28.751Z,99.90
2019-05-14T05:41:58.615Z,99.90
2019-05-14T05:44:28.764Z,99.90
2019-05-14T05:46:59.630Z,99.90
2019-05-14T05:49:29.411Z,99.90
2019-05-14T05:51:59.294Z,99.90
2019-05-14T05:54:29.347Z,99.90
2019-05-14T05:56:58.950Z,99.90
2019-05-14T05:59:29.251Z,99.90
2019-05-14T06:01:58.966Z,99.90
2019-05-14T06:04:29.006Z,99.90
2019-05-14T06:06:59.754Z,99.90
2019-05-14T06:09:29.663Z,99.90
2019-05-14T06:11:59.335Z,99.90
2019-05-14T06:14:29.233Z,99.90
2019-05-14T06:16:59.221Z,99.90
2019-05-14T06:19:29.077Z,99.90
2019-05-14T06:21:59.740Z,99.90
2019-05-14T06:24:29.392Z,99.90
2019-05-14T06:26:58.849Z,99.90
2019-05-14T06:29:29.001Z,99.90
2019-05-14T06:31:58.975Z,99.90
2019-05-14T06:34:29.160Z,99.90
2019-05-14T06:36:59.299Z,99.90
2019-05-14T06:39:28.805Z,99.90
2019-05-14T06:41:58.539Z,99.90
2019-05-14T06:44:29.443Z,99.90
2019-05-14T06:46:59.245Z,99.90
2019-05-14T06:49:29.146Z,99.90
2019-05-14T06:51:59.281Z,99.90
2019-05-14T06:54:29.273Z,99.90
2019-05-14T06:56:58.885Z,99.90
2019-05-14T06:59:28.822Z,99.90
2019-05-14T07:01:58.452Z,99.90
2019-05-14T07:04:28.918Z,99.90
2019-05-14T07:06:59.137Z,99.90
2019-05-14T07:09:29.033Z,99.90
2019-05-14T07:11:58.720Z,99.90
2019-05-14T07:14:28.389Z,99.90
2019-05-14T07:16:58.897Z,99.90
2019-05-14T07:19:29.359Z,99.90
2019-05-14T07:21:59.233Z,99.90
2019-05-14T07:24:28.647Z,99.90
2019-05-14T07:26:58.694Z,99.90
2019-05-14T07:29:29.298Z,99.90
2019-05-14T07:31:58.810Z,99.90
2019-05-14T07:34:28.435Z,99.90
2019-05-14T07:36:58.695Z,99.90
2019-05-14T07:39:29.170Z,99.90
2019-05-14T07:41:59.214Z,99.90
2019-05-14T07:44:29.658Z,99.90
2019-05-14T07:46:59.368Z,99.90
2019-05-14T07:49:29.201Z,98.60
2019-05-14T07:51:58.823Z,95.70
2019-05-14T07:54:30.323Z,95.20
2019-05-14T07:56:59.652Z,93.20
2019-05-14T07:59:29.022Z,91.80
2019-05-14T08:01:58.711Z,91.70
2019-05-14T08:04:28.931Z,94.60
2019-05-14T08:06:58.516Z,95.10
2019-05-14T08:09:28.402Z,99.90
2019-05-14T08:11:58.758Z,92.60
2019-05-14T08:14:29.394Z,90.10
2019-05-14T08:16:59.648Z,85.30
2019-05-14T08:19:31.508Z,79.60
2019-05-14T08:22:00.248Z,86.40
2019-05-14T08:24:30.203Z,84.80
2019-05-14T08:27:01.276Z,82.10
2019-05-14T08:29:30.577Z,77.70
2019-05-14T08:31:59.904Z,65.60
2019-05-14T08:34:32.202Z,62.10
2019-05-14T08:37:03.959Z,61.00
2019-05-14T08:39:31.378Z,59.20
2019-05-14T08:42:04.047Z,59.50
2019-05-14T08:44:31.833Z,57.90
2019-05-14T08:47:01.306Z,55.50
2019-05-14T08:49:42.482Z,55.50
2019-05-14T08:52:01.911Z,54.90
2019-05-14T08:54:31.317Z,55.20
2019-05-14T08:57:00.790Z,54.50
2019-05-14T08:59:30.241Z,51.60
2019-05-14T09:02:06.195Z,53.50
2019-05-14T09:04:30.964Z,56.20
2019-05-14T09:07:00.503Z,57.90
2019-05-14T09:09:29.801Z,56.30
2019-05-14T09:11:59.895Z,60.20
2019-05-14T09:14:29.477Z,56.90
2019-05-14T09:16:59.958Z,59.80
2019-05-14T09:19:29.542Z,58.90
2019-05-14T09:21:59.098Z,57.10
2019-05-14T09:24:29.399Z,57.30
2019-05-14T09:26:59.385Z,57.30
2019-05-14T09:29:29.849Z,56.30
2019-05-14T09:31:59.513Z,57.00
2019-05-14T09:34:31.599Z,56.60
2019-05-14T09:37:00.965Z,56.50
2019-05-14T09:39:30.343Z,54.20
2019-05-14T09:41:59.719Z,55.00
2019-05-14T09:44:30.389Z,54.60
2019-05-14T09:46:59.766Z,54.40
2019-05-14T09:49:29.652Z,50.40
2019-05-14T09:51:59.066Z,53.90
2019-05-14T09:54:28.892Z,54.30
2019-05-14T09:56:59.230Z,50.40
2019-05-14T09:59:28.799Z,51.50
2019-05-14T10:01:58.707Z,50.60
2019-05-14T10:04:28.276Z,51.10
2019-05-14T10:06:59.213Z,49.20
2019-05-14T10:09:29.077Z,49.50
2019-05-14T10:11:58.571Z,50.60
2019-05-14T10:14:29.792Z,48.60
2019-05-14T10:16:59.000Z,46.80
2019-05-14T10:19:29.691Z,50.00
2019-05-14T10:21:59.409Z,52.30
2019-05-14T10:24:29.284Z,48.60
2019-05-14T10:26:58.805Z,48.30
2019-05-14T10:29:28.689Z,49.90
2019-05-14T10:31:59.206Z,50.00
2019-05-14T10:34:28.957Z,45.30
2019-05-14T10:36:59.053Z,50.00
2019-05-14T10:39:29.767Z,47.70
2019-05-14T10:41:59.452Z,49.40
2019-05-14T10:44:29.242Z,50.30
2019-05-14T10:46:59.245Z,46.80
2019-05-14T10:49:30.058Z,47.90
2019-05-14T10:51:59.518Z,46.80
2019-05-14T10:54:29.406Z,49.50
2019-05-14T10:57:00.732Z,52.20
2019-05-14T10:59:30.108Z,52.70
2019-05-14T11:01:59.538Z,49.40
2019-05-14T11:04:28.910Z,48.50
2019-05-14T11:06:58.246Z,48.10
2019-05-14T11:09:28.605Z,47.90
2019-05-14T11:11:58.426Z,49.60
2019-05-14T11:14:31.796Z,49.30
2019-05-14T11:16:59.367Z,52.70
2019-05-14T11:19:28.878Z,52.30
2019-05-14T11:21:58.406Z,55.70
2019-05-14T11:24:29.517Z,55.80
2019-05-14T11:26:59.326Z,55.50
2019-05-14T11:29:29.590Z,52.80
2019-05-14T11:31:59.238Z,50.40
2019-05-14T11:34:28.913Z,52.50
2019-05-14T11:36:59.023Z,54.10
2019-05-14T11:39:30.349Z,53.90
2019-05-14T11:41:59.648Z,53.10
2019-05-14T11:44:28.939Z,53.40
2019-05-14T11:47:02.359Z,55.60
2019-05-14T11:49:29.329Z,54.60
2019-05-14T11:52:06.774Z,55.10
2019-05-14T11:54:29.803Z,55.00
2019-05-14T11:56:59.119Z,54.80
2019-05-14T11:59:28.593Z,53.60
2019-05-14T12:01:59.318Z,53.90
2019-05-14T12:04:28.841Z,50.90
2019-05-14T12:06:59.161Z,53.00
2019-05-14T12:09:31.184Z,53.80
2019-05-14T12:12:00.538Z,56.70
2019-05-14T12:14:30.024Z,54.40
2019-05-14T12:17:00.239Z,56.20
2019-05-14T12:19:29.707Z,52.70
2019-05-14T12:22:07.090Z,50.20
2019-05-14T12:24:30.480Z,50.20
2019-05-14T12:26:59.830Z,51.70
2019-05-14T12:29:29.456Z,52.80
2019-05-14T12:31:59.098Z,53.90
2019-05-14T12:34:29.685Z,56.00
2019-05-14T12:36:59.207Z,55.50
2019-05-14T12:39:29.478Z,56.10
2019-05-14T12:41:59.036Z,56.10
2019-05-14T12:44:29.179Z,57.20
2019-05-14T12:46:58.923Z,56.20
2019-05-14T12:49:28.418Z,56.00
2019-05-14T12:51:59.119Z,56.00
2019-05-14T12:54:29.811Z,53.50
2019-05-14T12:56:59.371Z,50.80
2019-05-14T12:59:28.725Z,51.00
2019-05-14T13:01:58.713Z,50.80
2019-05-14T13:04:28.616Z,53.30
2019-05-14T13:06:59.777Z,53.60
2019-05-14T13:09:29.357Z,55.80
2019-05-14T13:11:59.032Z,54.80
2019-05-14T13:14:28.637Z,54.10
2019-05-14T13:16:59.847Z,56.00
2019-05-14T13:19:29.124Z,54.20
2019-05-14T13:22:12.178Z,53.90
2019-05-14T13:24:29.524Z,56.20
2019-05-14T13:26:58.981Z,54.20
2019-05-14T13:29:28.938Z,54.50
2019-05-14T13:31:59.269Z,52.70
2019-05-14T13:34:29.150Z,53.10
2019-05-14T13:36:59.797Z,53.80
2019-05-14T13:39:29.351Z,54.40
2019-05-14T13:41:59.012Z,54.30
2019-05-14T13:44:29.391Z,54.60
2019-05-14T13:46:59.657Z,54.80
2019-05-14T13:49:29.733Z,55.40
2019-05-14T13:51:59.402Z,53.70
2019-05-14T13:54:31.786Z,52.90
2019-05-14T13:56:59.863Z,54.80
2019-05-14T13:59:29.194Z,54.20
2019-05-14T14:01:59.263Z,53.30
2019-05-14T14:04:28.784Z,53.50
2019-05-14T14:06:59.021Z,53.10
2019-05-14T14:09:31.563Z,53.40
2019-05-14T14:11:59.642Z,52.40
2019-05-14T14:14:29.345Z,53.30
2019-05-14T14:16:58.774Z,54.30
2019-05-14T14:19:28.379Z,53.40
2019-05-14T14:21:59.128Z,54.20
2019-05-14T14:24:29.199Z,54.20
2019-05-14T14:26:58.806Z,53.60
2019-05-14T14:29:28.214Z,53.40
2019-05-14T14:31:58.980Z,54.60
2019-05-14T14:34:29.033Z,54.60
2019-05-14T14:36:59.452Z,55.00
2019-05-14T14:39:29.048Z,57.90
2019-05-14T14:41:58.670Z,55.60
2019-05-14T14:44:29.172Z,54.20
2019-05-14T14:46:58.896Z,56.70
2019-05-14T14:49:28.319Z,54.90
2019-05-14T14:51:58.918Z,54.90
2019-05-14T14:54:28.824Z,56.90
2019-05-14T14:56:59.190Z,56.40
2019-05-14T14:59:30.469Z,54.60
2019-05-14T15:01:59.986Z,55.20
2019-05-14T15:04:29.477Z,54.90
2019-05-14T15:06:59.731Z,55.80
2019-05-14T15:09:29.369Z,53.60
2019-05-14T15:11:59.859Z,53.40
2019-05-14T15:14:29.937Z,53.10
2019-05-14T15:16:59.462Z,55.00
2019-05-14T15:19:29.787Z,53.10
2019-05-14T15:21:59.449Z,53.40
2019-05-14T15:24:28.819Z,56.00
2019-05-14T15:27:06.460Z,54.20
2019-05-14T15:29:29.326Z,53.50
2019-05-14T15:31:59.311Z,54.00
2019-05-14T15:34:29.710Z,54.90
2019-05-14T15:37:00.041Z,55.50
2019-05-14T15:39:30.447Z,54.50
2019-05-14T15:42:05.423Z,59.00
2019-05-14T15:44:47.615Z,55.80
2019-05-14T15:47:02.122Z,53.50
2019-05-14T15:49:31.531Z,53.00
2019-05-14T15:52:00.783Z,54.30
2019-05-14T15:54:42.209Z,54.20
2019-05-14T15:57:01.332Z,54.40
2019-05-14T15:59:30.722Z,55.80
2019-05-14T16:02:00.108Z,54.30
2019-05-14T16:04:29.598Z,54.20
2019-05-14T16:06:58.992Z,55.30
2019-05-14T16:09:29.066Z,53.70
2019-05-14T16:11:59.005Z,54.40
2019-05-14T16:14:30.039Z,53.60
2019-05-14T16:17:00.036Z,54.70
2019-05-14T16:19:29.727Z,54.50
2019-05-14T16:21:59.159Z,54.60
2019-05-14T16:24:28.773Z,53.40
2019-05-14T16:27:00.244Z,53.90
2019-05-14T16:29:41.269Z,54.30
2019-05-14T16:32:00.593Z,56.00
2019-05-14T16:34:30.030Z,56.30
2019-05-14T16:36:59.440Z,55.60
2019-05-14T16:39:28.767Z,56.80
2019-05-14T16:41:58.385Z,55.90
2019-05-14T16:44:28.367Z,56.30
2019-05-14T16:46:58.789Z,55.30
2019-05-14T16:49:29.949Z,57.00
2019-05-14T16:51:59.759Z,55.60
2019-05-14T16:54:29.894Z,55.60
2019-05-14T16:56:59.436Z,54.10
2019-05-14T16:59:29.567Z,54.50
2019-05-14T17:01:59.320Z,54.40
2019-05-14T17:04:29.307Z,55.00
2019-05-14T17:06:59.065Z,56.40
2019-05-14T17:09:28.669Z,55.30
2019-05-14T17:11:58.982Z,56.20
2019-05-14T17:14:29.119Z,55.70
2019-05-14T17:16:59.519Z,56.10
2019-05-14T17:19:29.847Z,57.10
2019-05-14T17:21:59.601Z,57.20
2019-05-14T17:24:29.444Z,56.30
2019-05-14T17:26:59.040Z,57.40
2019-05-14T17:29:29.261Z,57.60
2019-05-14T17:31:58.673Z,58.00
2019-05-14T17:34:29.297Z,58.30
2019-05-14T17:36:59.415Z,59.10
2019-05-14T17:39:29.014Z,59.10
2019-05-14T17:41:58.935Z,59.00
2019-05-14T17:44:28.714Z,60.00
2019-05-14T17:46:58.739Z,61.60
2019-05-14T17:49:28.437Z,60.80
2019-05-14T17:51:58.248Z,60.80
2019-05-14T17:54:30.069Z,61.00
2019-05-14T17:56:59.476Z,61.10
2019-05-14T17:59:29.743Z,61.50
2019-05-14T18:01:59.520Z,61.50
2019-05-14T18:04:28.922Z,62.60
2019-05-14T18:06:59.164Z,62.60
2019-05-14T18:09:29.285Z,62.10
2019-05-14T18:11:58.881Z,62.50
2019-05-14T18:14:31.965Z,63.10
2019-05-14T18:17:01.317Z,62.80
2019-05-14T18:19:30.706Z,63.40
2019-05-14T18:22:00.168Z,63.80
2019-05-14T18:24:29.578Z,64.00
2019-05-14T18:26:59.058Z,65.20
2019-05-14T18:29:29.579Z,64.80
2019-05-14T18:32:01.026Z,65.70
2019-05-14T18:34:30.478Z,64.40
2019-05-14T18:37:01.419Z,64.50
2019-05-14T18:39:30.947Z,65.30
2019-05-14T18:42:00.800Z,65.60
2019-05-14T18:44:30.383Z,67.20
2019-05-14T18:46:59.771Z,65.40
2019-05-14T18:49:29.311Z,64.80
2019-05-14T18:51:59.244Z,63.30
2019-05-14T18:54:29.384Z,63.50
2019-05-14T18:56:59.647Z,61.60
2019-05-14T18:59:30.724Z,61.90
2019-05-14T19:02:00.585Z,62.10
2019-05-14T19:04:30.163Z,62.00
2019-05-14T19:06:59.707Z,62.10
2019-05-14T19:09:29.368Z,62.50
2019-05-14T19:11:58.942Z,63.80
2019-05-14T19:14:29.236Z,63.00
2019-05-14T19:16:58.882Z,64.80
2019-05-14T19:19:29.390Z,65.70
2019-05-14T19:21:58.989Z,64.50
2019-05-14T19:24:28.778Z,64.20
2019-05-14T19:26:59.516Z,64.20
2019-05-14T19:29:29.150Z,64.20
2019-05-14T19:31:58.555Z,64.90
2019-05-14T19:34:28.697Z,64.70
2019-05-14T19:36:58.288Z,65.60
2019-05-14T19:39:28.185Z,67.00
2019-05-14T19:41:57.771Z,69.70
2019-05-14T19:44:29.611Z,71.90
2019-05-14T19:46:59.240Z,73.60
2019-05-14T19:49:28.996Z,72.90
2019-05-14T19:51:58.800Z,75.50
2019-05-14T19:54:29.230Z,75.50
2019-05-14T19:57:00.931Z,76.30
2019-05-14T19:59:29.843Z,77.90
2019-05-14T20:01:59.296Z,79.70
2019-05-14T20:04:29.191Z,84.00
2019-05-14T20:06:59.320Z,86.80
2019-05-14T20:09:28.650Z,90.30
2019-05-14T20:11:58.237Z,91.80
2019-05-14T20:14:28.710Z,92.40
2019-05-14T20:16:58.399Z,94.80
2019-05-14T20:19:28.644Z,91.60
2019-05-14T20:21:58.806Z,95.00
2019-05-14T20:24:28.407Z,95.60
2019-05-14T20:27:07.853Z,97.10
2019-05-14T20:29:28.901Z,97.60
2019-05-14T20:32:01.655Z,97.80
2019-05-14T20:34:29.303Z,99.90
2019-05-14T20:36:58.864Z,99.90
2019-05-14T20:39:29.468Z,99.90
2019-05-14T20:41:59.479Z,99.90
2019-05-14T20:44:28.860Z,99.90
2019-05-14T20:46:58.405Z,99.90
2019-05-14T20:49:28.420Z,99.90
2019-05-14T20:51:59.472Z,99.90
2019-05-14T20:54:29.116Z,99.90
2019-05-14T20:56:58.690Z,99.90
2019-05-14T20:59:28.335Z,99.90
2019-05-14T21:01:58.900Z,99.90
2019-05-14T21:04:28.433Z,99.90
2019-05-14T21:06:58.754Z,99.90
2019-05-14T21:09:28.850Z,99.90
2019-05-14T21:11:58.525Z,99.90
2019-05-14T21:14:27.897Z,99.90
2019-05-14T21:16:57.259Z,99.90
2019-05-14T21:19:28.360Z,99.90
2019-05-14T21:21:58.205Z,99.90
2019-05-14T21:24:29.433Z,99.90
2019-05-14T21:26:58.978Z,99.90
2019-05-14T21:29:30.538Z,99.90
2019-05-14T21:32:01.630Z,99.90
2019-05-14T21:34:30.818Z,99.90
2019-05-14T21:37:00.274Z,99.90
2019-05-14T21:39:29.702Z,99.90
2019-05-14T21:41:59.074Z,99.90
2019-05-14T21:44:28.498Z,99.90
2019-05-14T21:46:58.915Z,99.90
2019-05-14T21:49:28.747Z,99.90
2019-05-14T21:51:58.412Z,99.90
2019-05-14T21:54:28.121Z,99.90
2019-05-14T21:56:58.986Z,99.90
2019-05-14T21:59:28.388Z,99.90
2019-05-14T22:01:58.982Z,99.90
2019-05-14T22:04:29.000Z,99.90
2019-05-14T22:06:58.479Z,99.90
2019-05-14T22:09:28.472Z,99.90
2019-05-14T22:11:58.276Z,99.90
2019-05-14T22:14:28.935Z,99.90
2019-05-14T22:16:58.512Z,99.90
2019-05-14T22:19:28.655Z,99.90
2019-05-14T22:21:58.717Z,99.90
2019-05-14T22:24:28.665Z,99.90
2019-05-14T22:26:58.322Z,99.90
2019-05-14T22:29:28.633Z,99.90
2019-05-14T22:31:58.718Z,99.90
2019-05-14T22:34:28.229Z,99.90
2019-05-14T22:36:58.094Z,99.90
2019-05-14T22:39:29.201Z,99.90
2019-05-14T22:42:00.258Z,99.90
2019-05-14T22:44:29.786Z,99.90
2019-05-14T22:46:59.054Z,99.90
2019-05-14T22:49:31.346Z,99.90
2019-05-14T22:52:00.642Z,99.90
2019-05-14T22:54:29.952Z,99.90
2019-05-14T22:56:59.350Z,99.90
2019-05-14T22:59:28.747Z,99.90
2019-05-14T23:01:58.905Z,99.90
2019-05-14T23:04:28.949Z,99.90
2019-05-14T23:06:58.741Z,99.90
2019-05-14T23:09:28.212Z,99.90
2019-05-14T23:11:58.913Z,99.90
2019-05-14T23:14:28.367Z,99.90
2019-05-14T23:16:57.690Z,99.90
2019-05-14T23:19:27.097Z,99.90
2019-05-14T23:21:58.069Z,99.90
2019-05-14T23:24:28.423Z,99.90
2019-05-14T23:26:58.554Z,99.90
2019-05-14T23:29:28.805Z,99.90
2019-05-14T23:31:59.077Z,99.90
2019-05-14T23:34:28.588Z,99.90
2019-05-14T23:36:58.601Z,99.90
2019-05-14T23:39:29.058Z,99.90
2019-05-14T23:41:58.698Z,99.90
2019-05-14T23:44:29.358Z,99.90
2019-05-14T23:46:58.941Z,99.90
2019-05-14T23:49:28.433Z,99.90
2019-05-14T23:51:57.699Z,99.90
2019-05-14T23:54:29.106Z,99.90
2019-05-14T23:56:58.483Z,99.90
2019-05-14T23:59:29.398Z,99.90
